Blythe, CA (92225)

2:56 PM PST on January 17, 2017 (GMT -0800)
farmerman92225 | | Change Station

Elev 259 ft 33.62 °N, 114.66 °W | Updated 1 minute ago

Clear
Clear
64.8 °F
Feels Like 64.8 °F
N
2.0
Wind Variable Wind from ENE
Gusts 7.0 mph

Today
High -- | Low -- °F
--% Chance of Precip.
Yesterday
High -- | Low -- °F
Precip. -- in
Pressure 30.06 in
Visibility 10.0 miles
Clouds Clear
Dew Point 30 °F
Humidity 27%
Rainfall 0.00 in
Snow Depth Not available.
6:42 AM 4:55 PM
Waning Gibbous, 69% visible
METAR KBLH 172252Z AUTO 36008KT 10SM CLR 19/M04 A3007 RMK AO2 SLP179 T01891044
Pressure 30.06 in
Visibility 10.0 miles
Clouds Clear
Dew Point 30 °F
Humidity 27%
Rainfall 0.00 in
Snow Depth Not available.
6:42 AM 4:55 PM
Waning Gibbous, 69% visible
METAR KBLH 172252Z AUTO 36008KT 10SM CLR 19/M04 A3007 RMK AO2 SLP179 T01891044

Get Your Daily Forecast Email!

Thanks for signing up!

Be on the lookout for a verification email in your inbox.

You'll start receiving the daily forecast at 8 AM.

×

10-Day Weather Forecast

Almanac

Astronomy

Jan. 17, 2017 Rise Set
Actual Time
Civil Twilight
Nautical Twilight
Astronomical Twilight
Moon
Length of Visible Light
Length of Day
Tomorrow will be .
, % of the Moon is Illuminated

Today's Extremes

State Highs State Lows

Community

WunderPhotos

Upload Photos

1,962,540 photos uploaded!

WunderBlog® & News

Nearby

Air Quality

  Air Quality AQ Index Pollutant
Not available.

Snow Depth

Station Depth Elevation

Earthquake Activity

City Distance Mag. Time & Date
Minimum magnitude displayed is 2.5.

Coastal Water Temperatures

Place Temperature

Stations

Nearby Weather Stations

Station Location Temp. Windchill Dew Point Humidity Wind Precip. Elev Updated Type
                   

Watches & Warnings

There are currently no watches in effect.